Time;durP1;ratioP1;P1;durP2;ratioP2;P2;SDS_P1;SDS_P2;PMS_P1;PMS_P2;Temp;Humidity;BMP_temperature;BMP_pressure;BME280_temperature;BME280_humidity;BME280_pressure;Samples;Min_cycle;Max_cycle;Signal;HPM_P1;HPM_P2
2022/10/20 00:01:49;;;;;;;;;;;10.30;99.90;;;;;;4990144;28;19926;-74
2022/10/20 00:04:15;;;;;;;;;;;10.40;99.90;;;;;;5023062;28;19960;-75
2022/10/20 00:06:47;;;;;;;;;;;10.30;99.90;;;;;;5010535;28;19929;-74
2022/10/20 00:09:19;;;;;;;;;;;10.30;99.90;;;;;;5000464;28;19933;-75
2022/10/20 00:11:50;;;;;;;;;;;10.40;99.90;;;;;;5008875;28;19929;-73
2022/10/20 00:14:22;;;;;;;;;;;10.40;99.90;;;;;;5009245;28;19995;-76
2022/10/20 00:16:54;;;;;;;;;;;10.40;99.90;;;;;;5024514;28;19972;-75
2022/10/20 00:19:25;;;;;;;;;;;10.40;99.90;;;;;;5007966;28;20414;-75
2022/10/20 00:21:58;;;;;;;;;;;10.40;99.90;;;;;;4993702;28;19932;-74
2022/10/20 00:24:29;;;;;;;;;;;10.40;99.90;;;;;;4992206;28;19979;-73
2022/10/20 00:26:56;;;;;;;;;;;10.40;99.90;;;;;;5010318;28;19961;-75
2022/10/20 00:29:29;;;;;;;;;;;10.40;99.90;;;;;;4992139;28;19926;-74
2022/10/20 00:32:00;;;;;;;;;;;10.40;99.90;;;;;;4990830;28;20377;-75
2022/10/20 00:34:32;;;;;;;;;;;10.30;99.90;;;;;;4993492;28;19979;-74
2022/10/20 00:36:58;;;;;;;;;;;10.40;99.90;;;;;;5007124;28;20061;-74
2022/10/20 00:39:30;;;;;;;;;;;10.30;99.90;;;;;;4992081;28;19925;-74
2022/10/20 00:42:02;;;;;;;;;;;10.40;99.90;;;;;;4991132;28;19926;-73
2022/10/20 00:44:47;;;;;;;;;;;10.40;99.90;;;;;;5026049;28;19983;-74
2022/10/20 00:47:39;;;;;;;;;;;10.30;99.90;;;;;;5007956;28;19972;-72
2022/10/20 00:50:12;;;;;;;;;;;10.30;99.90;;;;;;4997473;28;19925;-74
2022/10/20 00:52:40;;;;;;;;;;;10.40;99.90;;;;;;5023852;28;19926;-73
2022/10/20 00:55:08;;;;;;;;;;;10.40;99.90;;;;;;5025834;28;20304;-73
2022/10/20 00:57:41;;;;;;;;;;;10.30;99.90;;;;;;5007796;28;20293;-74
2022/10/20 01:00:13;;;;;;;;;;;10.40;99.90;;;;;;5006383;28;19932;-74
2022/10/20 01:02:45;;;;;;;;;;;10.40;99.90;;;;;;4989103;28;19929;-73
2022/10/20 01:05:16;;;;;;;;;;;10.40;99.90;;;;;;5025020;28;19925;-74
2022/10/20 01:07:48;;;;;;;;;;;10.50;99.90;;;;;;4992193;28;19929;-73
2022/10/20 01:10:19;;;;;;;;;;;10.40;99.90;;;;;;5006639;28;19929;-73
2022/10/20 01:12:51;;;;;;;;;;;10.40;99.90;;;;;;4992267;28;20604;-74
2022/10/20 01:15:29;;;;;;;;;;;10.40;99.90;;;;;;5024718;28;20342;-74
2022/10/20 01:18:09;;;;;;;;;;;10.40;99.90;;;;;;5006284;28;19940;-74
2022/10/20 01:21:03;;;;;;;;;;;10.40;99.90;;;;;;4991392;28;19929;-74
2022/10/20 01:23:38;;;;;;;;;;;10.50;99.90;;;;;;5023200;28;19972;-73
2022/10/20 01:26:28;;;;;;;;;;;10.50;99.90;;;;;;5005326;28;19925;-73
2022/10/20 01:29:04;;;;;;;;;;;10.50;99.90;;;;;;4980781;28;19925;-73
2022/10/20 01:31:41;;;;;;;;;;;10.60;99.90;;;;;;4999852;28;19933;-74
2022/10/20 01:34:15;;;;;;;;;;;10.60;99.90;;;;;;4992771;28;19980;-75
2022/10/20 01:36:53;;;;;;;;;;;10.70;99.90;;;;;;5007357;28;19933;-74
2022/10/20 01:39:28;;;;;;;;;;;10.70;99.90;;;;;;5019877;28;19929;-75
2022/10/20 01:42:04;;;;;;;;;;;10.70;99.90;;;;;;4989663;28;20007;-76
2022/10/20 01:44:38;;;;;;;;;;;10.70;99.90;;;;;;5007467;28;20004;-74
2022/10/20 01:47:05;;;;;;;;;;;10.70;99.90;;;;;;5008986;28;19929;-74
2022/10/20 01:49:40;;;;;;;;;;;10.70;99.90;;;;;;4967052;28;20327;-73
2022/10/20 01:52:11;;;;;;;;;;;10.70;99.90;;;;;;5028330;28;19929;-74
2022/10/20 01:54:38;;;;;;;;;;;10.70;99.90;;;;;;5011830;28;19933;-75
2022/10/20 01:57:10;;;;;;;;;;;10.70;99.90;;;;;;4994701;28;20451;-74
2022/10/20 02:00:00;;;;;;;;;;;10.60;99.90;;;;;;5026373;28;19929;-74
2022/10/20 02:02:32;;;;;;;;;;;10.60;99.90;;;;;;5024008;28;19926;-75
2022/10/20 02:05:11;;;;;;;;;;;10.60;99.90;;;;;;5011662;28;20601;-74
2022/10/20 02:07:43;;;;;;;;;;;10.60;99.90;;;;;;5016168;28;20340;-75
2022/10/20 02:10:17;;;;;;;;;;;10.70;99.90;;;;;;4991779;28;19930;-74
2022/10/20 02:12:51;;;;;;;;;;;10.60;99.90;;;;;;4995335;28;19925;-74
2022/10/20 02:15:20;;;;;;;;;;;10.70;99.90;;;;;;4995023;28;19929;-74
2022/10/20 02:17:55;;;;;;;;;;;10.70;99.90;;;;;;5022858;28;19937;-74
2022/10/20 02:20:28;;;;;;;;;;;10.70;99.90;;;;;;5026866;28;19925;-73
2022/10/20 02:22:56;;;;;;;;;;;10.70;99.90;;;;;;4995343;28;19971;-74
2022/10/20 02:25:23;;;;;;;;;;;10.70;99.90;;;;;;4994286;28;19972;-74
2022/10/20 02:27:56;;;;;;;;;;;10.70;99.90;;;;;;4994215;28;20351;-76
2022/10/20 02:30:27;;;;;;;;;;;10.70;99.90;;;;;;4978646;28;19929;-75
2022/10/20 02:32:54;;;;;;;;;;;10.80;99.90;;;;;;5012462;28;19925;-76
2022/10/20 02:35:22;;;;;;;;;;;10.80;99.90;;;;;;5025980;28;19960;-75
2022/10/20 02:37:54;;;;;;;;;;;10.80;99.90;;;;;;5009675;28;20301;-75
2022/10/20 02:40:25;;;;;;;;;;;10.80;99.90;;;;;;4988643;28;20448;-75
2022/10/20 02:42:57;;;;;;;;;;;10.80;99.90;;;;;;4995038;28;20536;-75
2022/10/20 02:45:24;;;;;;;;;;;10.80;99.90;;;;;;4994632;28;19997;-74
2022/10/20 02:47:55;;;;;;;;;;;10.80;99.90;;;;;;5025919;28;19929;-74
2022/10/20 02:50:27;;;;;;;;;;;10.90;99.90;;;;;;4994276;28;19925;-75
2022/10/20 02:52:58;;;;;;;;;;;10.90;99.90;;;;;;4994666;28;19980;-75
2022/10/20 02:55:30;;;;;;;;;;;10.90;99.90;;;;;;5011021;28;19930;-74
2022/10/20 02:58:01;;;;;;;;;;;10.90;99.90;;;;;;5009904;28;19937;-74
2022/10/20 03:00:33;;;;;;;;;;;11.00;99.90;;;;;;5018667;28;19929;-74
2022/10/20 03:03:04;;;;;;;;;;;11.00;99.90;;;;;;5025268;28;19941;-74
2022/10/20 03:05:40;;;;;;;;;;;11.00;99.90;;;;;;4993713;28;19960;-75
2022/10/20 03:08:12;;;;;;;;;;;11.00;99.90;;;;;;4990553;28;19930;-74
2022/10/20 03:10:44;;;;;;;;;;;11.00;99.90;;;;;;4993432;28;20400;-74
2022/10/20 03:13:16;;;;;;;;;;;11.00;99.90;;;;;;4992280;28;20057;-74
2022/10/20 03:15:47;;;;;;;;;;;11.00;99.90;;;;;;5009395;28;19984;-75
2022/10/20 03:18:14;;;;;;;;;;;11.00;99.90;;;;;;5008262;28;19929;-75
2022/10/20 03:20:42;;;;;;;;;;;11.00;99.90;;;;;;5008851;28;19991;-75
2022/10/20 03:23:13;;;;;;;;;;;11.00;99.90;;;;;;4995420;28;19973;-76
2022/10/20 03:25:45;;;;;;;;;;;11.10;99.90;;;;;;5009630;28;19926;-75
2022/10/20 03:28:12;;;;;;;;;;;11.00;99.90;;;;;;4992547;28;19960;-76
2022/10/20 03:30:45;;;;;;;;;;;11.10;99.90;;;;;;5025770;28;19972;-74
2022/10/20 03:33:16;;;;;;;;;;;11.10;99.90;;;;;;5009305;28;20307;-74
2022/10/20 03:35:48;;;;;;;;;;;11.00;99.90;;;;;;4993880;28;19925;-75
2022/10/20 03:38:15;;;;;;;;;;;11.10;99.90;;;;;;4993582;28;19929;-75
2022/10/20 03:40:46;;;;;;;;;;;11.10;99.90;;;;;;5009112;28;20728;-76
2022/10/20 03:43:18;;;;;;;;;;;11.10;99.90;;;;;;4986976;28;19956;-76
2022/10/20 03:45:50;;;;;;;;;;;11.10;99.90;;;;;;4987573;28;19930;-76
2022/10/20 03:48:16;;;;;;;;;;;11.20;99.90;;;;;;5019883;28;20007;-76
2022/10/20 03:50:48;;;;;;;;;;;11.10;99.90;;;;;;5010682;28;20004;-75
2022/10/20 03:53:19;;;;;;;;;;;11.10;99.90;;;;;;4999906;28;19925;-76
2022/10/20 03:55:51;;;;;;;;;;;11.20;99.90;;;;;;4978730;28;19968;-76
2022/10/20 03:58:22;;;;;;;;;;;11.20;99.90;;;;;;5002973;28;19987;-76
2022/10/20 04:00:54;;;;;;;;;;;11.20;99.90;;;;;;4990953;28;19933;-75
2022/10/20 04:03:25;;;;;;;;;;;11.20;99.90;;;;;;5007860;28;20024;-75
2022/10/20 04:05:57;;;;;;;;;;;11.20;99.90;;;;;;5008886;28;19926;-76
2022/10/20 04:08:24;;;;;;;;;;;11.20;99.90;;;;;;5001439;28;19934;-74
2022/10/20 04:10:56;;;;;;;;;;;11.20;99.90;;;;;;4993759;28;19992;-76
2022/10/20 04:13:27;;;;;;;;;;;11.20;99.90;;;;;;5009622;28;19925;-74
2022/10/20 04:15:59;;;;;;;;;;;11.30;99.90;;;;;;4991608;28;19926;-77
2022/10/20 04:18:26;;;;;;;;;;;11.20;99.90;;;;;;5007681;28;19984;-75
2022/10/20 04:20:52;;;;;;;;;;;11.30;99.90;;;;;;4991782;28;19930;-74
2022/10/20 04:23:19;;;;;;;;;;;11.30;99.90;;;;;;5025956;28;19926;-74
2022/10/20 04:25:47;;;;;;;;;;;11.30;99.90;;;;;;5010688;28;19976;-77
2022/10/20 04:28:19;;;;;;;;;;;11.30;99.90;;;;;;5008737;28;19930;-75
2022/10/20 04:30:51;;;;;;;;;;;11.30;99.90;;;;;;5006497;28;19925;-75
2022/10/20 04:33:23;;;;;;;;;;;11.30;99.90;;;;;;5010477;28;19961;-75
2022/10/20 04:36:01;;;;;;;;;;;11.30;99.90;;;;;;5010454;28;20443;-76
2022/10/20 04:38:28;;;;;;;;;;;11.40;99.90;;;;;;5006439;28;20388;-74
2022/10/20 04:41:01;;;;;;;;;;;11.40;99.90;;;;;;5004780;28;20400;-75
2022/10/20 04:43:33;;;;;;;;;;;11.40;99.90;;;;;;5011055;28;20487;-75
2022/10/20 04:46:03;;;;;;;;;;;11.40;99.90;;;;;;4992104;28;19988;-75
2022/10/20 04:48:35;;;;;;;;;;;11.40;99.90;;;;;;4991526;28;19925;-76
2022/10/20 04:51:09;;;;;;;;;;;11.50;99.90;;;;;;4992384;28;19952;-74
2022/10/20 04:53:40;;;;;;;;;;;11.50;99.90;;;;;;4991125;28;19930;-75
2022/10/20 04:56:09;;;;;;;;;;;11.50;99.90;;;;;;5025216;28;19929;-75
2022/10/20 04:58:35;;;;;;;;;;;11.50;99.90;;;;;;5007843;28;19937;-77
2022/10/20 05:01:08;;;;;;;;;;;11.50;99.90;;;;;;5007508;28;19926;-75
2022/10/20 05:03:39;;;;;;;;;;;11.50;99.90;;;;;;5010636;28;19979;-76
2022/10/20 05:06:18;;;;;;;;;;;11.50;99.90;;;;;;5007489;28;19980;-73
2022/10/20 05:08:51;;;;;;;;;;;11.50;99.90;;;;;;4987539;28;20355;-76
2022/10/20 05:11:23;;;;;;;;;;;11.50;99.90;;;;;;4990481;28;19929;-76
2022/10/20 05:13:55;;;;;;;;;;;11.50;99.90;;;;;;4990602;28;19926;-76
2022/10/20 05:16:27;;;;;;;;;;;11.50;99.90;;;;;;5007146;28;19974;-73
2022/10/20 05:18:54;;;;;;;;;;;11.50;99.90;;;;;;4989449;28;19984;-75
2022/10/20 05:21:28;;;;;;;;;;;11.50;99.90;;;;;;5008112;28;19949;-76
2022/10/20 05:24:01;;;;;;;;;;;11.50;99.90;;;;;;4991935;28;19973;-74
2022/10/20 05:26:34;;;;;;;;;;;11.50;99.90;;;;;;4994312;28;20332;-74
2022/10/20 05:29:07;;;;;;;;;;;11.50;99.90;;;;;;5008293;28;19929;-74
2022/10/20 05:31:40;;;;;;;;;;;11.50;99.90;;;;;;5008693;28;20380;-76
2022/10/20 05:34:11;;;;;;;;;;;11.50;99.90;;;;;;5009671;28;19929;-76
2022/10/20 05:36:38;;;;;;;;;;;11.50;99.90;;;;;;5007819;28;19932;-77
2022/10/20 05:39:10;;;;;;;;;;;11.50;99.90;;;;;;5012171;28;19925;-77
2022/10/20 05:41:41;;;;;;;;;;;11.50;99.90;;;;;;5010442;28;19929;-76
2022/10/20 05:44:10;;;;;;;;;;;11.50;99.90;;;;;;4994956;28;20297;-77
2022/10/20 05:46:42;;;;;;;;;;;11.50;99.90;;;;;;4990640;28;19984;-76
2022/10/20 05:49:15;;;;;;;;;;;11.60;99.90;;;;;;4994277;28;19998;-75
2022/10/20 05:51:47;;;;;;;;;;;11.60;99.90;;;;;;4995619;28;19938;-78
2022/10/20 05:54:18;;;;;;;;;;;11.60;99.90;;;;;;4995894;28;19929;-75
2022/10/20 05:56:50;;;;;;;;;;;11.60;99.90;;;;;;5010489;28;19933;-75
2022/10/20 05:59:21;;;;;;;;;;;11.60;99.90;;;;;;4984519;28;19941;-74
2022/10/20 06:01:53;;;;;;;;;;;11.60;99.90;;;;;;5003041;28;20476;-77
2022/10/20 06:04:26;;;;;;;;;;;11.60;99.90;;;;;;4992980;28;20292;-74
2022/10/20 06:06:53;;;;;;;;;;;11.60;99.90;;;;;;4991801;28;19976;-75
2022/10/20 06:09:20;;;;;;;;;;;11.60;99.90;;;;;;4993122;28;19930;-75
2022/10/20 06:11:52;;;;;;;;;;;11.70;99.90;;;;;;4995627;28;19929;-75
2022/10/20 06:14:21;;;;;;;;;;;11.70;99.90;;;;;;4991989;28;19984;-74
2022/10/20 06:16:51;;;;;;;;;;;11.70;99.90;;;;;;4976356;28;19932;-75
2022/10/20 06:19:24;;;;;;;;;;;11.70;99.90;;;;;;4972631;28;19936;-74
2022/10/20 06:21:51;;;;;;;;;;;11.70;99.90;;;;;;4979338;28;19930;-76
2022/10/20 06:24:22;;;;;;;;;;;11.80;99.90;;;;;;5018268;28;19953;-76
2022/10/20 06:26:54;;;;;;;;;;;11.80;99.90;;;;;;4994045;28;19988;-74
2022/10/20 06:29:20;;;;;;;;;;;11.80;99.90;;;;;;5007435;28;19935;-75
2022/10/20 06:31:53;;;;;;;;;;;11.80;99.90;;;;;;4996052;28;19940;-75
2022/10/20 06:34:25;;;;;;;;;;;11.80;99.90;;;;;;4994232;28;19960;-76
2022/10/20 06:36:56;;;;;;;;;;;11.80;99.90;;;;;;4990479;28;19925;-75
2022/10/20 06:39:28;;;;;;;;;;;11.90;99.90;;;;;;4991457;28;19933;-77
2022/10/20 06:41:54;;;;;;;;;;;11.90;99.90;;;;;;5010550;28;19929;-77
2022/10/20 06:44:30;;;;;;;;;;;11.90;99.90;;;;;;5012858;28;20035;-76
2022/10/20 06:47:01;;;;;;;;;;;11.90;99.90;;;;;;5011443;28;20307;-76
2022/10/20 06:49:33;;;;;;;;;;;11.90;99.90;;;;;;5009405;28;19972;-76
2022/10/20 06:52:05;;;;;;;;;;;11.90;99.90;;;;;;4993190;28;20283;-77
2022/10/20 06:54:31;;;;;;;;;;;11.90;99.90;;;;;;5010007;28;19926;-76
2022/10/20 06:56:58;;;;;;;;;;;11.90;99.90;;;;;;5012831;28;19929;-73
2022/10/20 06:59:29;;;;;;;;;;;11.90;99.90;;;;;;5022098;28;20442;-75
2022/10/20 07:02:01;;;;;;;;;;;11.90;99.90;;;;;;5006356;28;19932;-76
2022/10/20 07:04:32;;;;;;;;;;;11.90;99.90;;;;;;5007380;28;19975;-75
2022/10/20 07:06:59;;;;;;;;;;;11.90;99.90;;;;;;4996094;28;19926;-75
2022/10/20 07:09:25;;;;;;;;;;;11.90;99.90;;;;;;5007819;28;19988;-76
2022/10/20 07:11:57;;;;;;;;;;;11.90;99.90;;;;;;4991342;28;19926;-75
2022/10/20 07:14:24;;;;;;;;;;;11.90;99.90;;;;;;4995861;28;20013;-77
2022/10/20 07:16:55;;;;;;;;;;;11.90;99.90;;;;;;5012012;28;19930;-76
2022/10/20 07:19:27;;;;;;;;;;;11.90;99.90;;;;;;4993115;28;19929;-76
2022/10/20 07:21:59;;;;;;;;;;;11.80;99.90;;;;;;5010759;28;19936;-77
2022/10/20 07:24:30;;;;;;;;;;;11.90;99.90;;;;;;5012510;28;19934;-76
2022/10/20 07:27:02;;;;;;;;;;;11.90;99.90;;;;;;4991633;28;20482;-74
2022/10/20 07:29:33;;;;;;;;;;;11.90;99.90;;;;;;4989757;28;19930;-75
2022/10/20 07:32:00;;;;;;;;;;;11.90;99.90;;;;;;4988895;28;19936;-76
2022/10/20 07:34:26;;;;;;;;;;;11.90;99.90;;;;;;4992945;28;19925;-72
2022/10/20 07:36:58;;;;;;;;;;;12.00;99.90;;;;;;4992446;28;19996;-74
2022/10/20 07:39:29;;;;;;;;;;;12.00;99.90;;;;;;4992858;28;19929;-77
2022/10/20 07:42:01;;;;;;;;;;;12.00;99.90;;;;;;4994727;28;19929;-77
2022/10/20 07:44:33;;;;;;;;;;;12.00;99.90;;;;;;5011346;28;19968;-74
2022/10/20 07:47:04;;;;;;;;;;;12.00;99.90;;;;;;4991629;28;19925;-76
2022/10/20 07:49:36;;;;;;;;;;;12.00;99.90;;;;;;4993134;28;19961;-73
2022/10/20 07:52:02;;;;;;;;;;;12.00;99.90;;;;;;4993496;28;19929;-76
2022/10/20 07:54:34;;;;;;;;;;;12.00;99.90;;;;;;5008518;28;19984;-75
2022/10/20 07:57:01;;;;;;;;;;;12.00;99.90;;;;;;5010503;28;20411;-75
2022/10/20 07:59:32;;;;;;;;;;;12.00;99.90;;;;;;5016910;28;19984;-73
2022/10/20 08:01:59;;;;;;;;;;;12.10;99.90;;;;;;4992094;28;19926;-75
2022/10/20 08:04:26;;;;;;;;;;;12.10;99.90;;;;;;5024609;28;19964;-76
2022/10/20 08:06:58;;;;;;;;;;;12.20;99.90;;;;;;5025236;28;19925;-76
2022/10/20 08:09:30;;;;;;;;;;;12.20;99.90;;;;;;4998627;28;20561;-77
2022/10/20 08:12:02;;;;;;;;;;;12.20;99.90;;;;;;4992633;28;19926;-75
2022/10/20 08:14:36;;;;;;;;;;;12.10;99.90;;;;;;5006667;28;19930;-75
2022/10/20 08:17:03;;;;;;;;;;;12.20;99.90;;;;;;5007651;28;19926;-74
2022/10/20 08:19:35;;;;;;;;;;;12.10;99.90;;;;;;5006785;28;19926;-75
2022/10/20 08:22:04;;;;;;;;;;;12.10;99.90;;;;;;4977100;28;19925;-74
2022/10/20 08:24:31;;;;;;;;;;;12.10;99.90;;;;;;5011941;28;19949;-75
2022/10/20 08:27:02;;;;;;;;;;;12.10;99.90;;;;;;5010024;28;19929;-77
2022/10/20 08:29:29;;;;;;;;;;;12.10;99.90;;;;;;4991330;28;19979;-76
2022/10/20 08:32:01;;;;;;;;;;;12.10;99.90;;;;;;4996293;28;19926;-73
2022/10/20 08:34:27;;;;;;;;;;;12.10;99.90;;;;;;4992466;28;19929;-76
2022/10/20 08:36:54;;;;;;;;;;;12.20;99.90;;;;;;4992224;28;19933;-75
2022/10/20 08:39:20;;;;;;;;;;;12.20;99.90;;;;;;5009850;28;19933;-75
2022/10/20 08:41:48;;;;;;;;;;;12.20;99.90;;;;;;5004489;28;20309;-74
2022/10/20 08:44:31;;;;;;;;;;;12.20;99.90;;;;;;5000492;28;20356;-75
2022/10/20 08:47:04;;;;;;;;;;;12.20;99.90;;;;;;4976065;28;20402;-74
2022/10/20 08:49:36;;;;;;;;;;;12.30;99.90;;;;;;5009795;28;19933;-76
2022/10/20 08:52:10;;;;;;;;;;;12.30;99.90;;;;;;4986016;28;19925;-75
2022/10/20 08:54:41;;;;;;;;;;;12.30;99.90;;;;;;5008266;28;19925;-74
2022/10/20 08:57:19;;;;;;;;;;;12.40;99.90;;;;;;4991736;28;19933;-74
2022/10/20 08:59:46;;;;;;;;;;;12.40;99.90;;;;;;4991420;28;20396;-73
2022/10/20 09:02:17;;;;;;;;;;;12.40;99.90;;;;;;5021873;28;19967;-76
2022/10/20 09:04:53;;;;;;;;;;;12.50;99.90;;;;;;5022339;28;19976;-75
2022/10/20 09:07:25;;;;;;;;;;;12.50;99.90;;;;;;4991753;28;19961;-75
2022/10/20 09:09:53;;;;;;;;;;;12.50;99.90;;;;;;5003164;28;20368;-74
2022/10/20 09:12:26;;;;;;;;;;;12.50;99.90;;;;;;4983606;28;20351;-77
2022/10/20 09:14:52;;;;;;;;;;;12.50;99.90;;;;;;5020557;28;19948;-75
2022/10/20 09:17:24;;;;;;;;;;;12.50;99.90;;;;;;4990981;28;19929;-74
2022/10/20 09:19:57;;;;;;;;;;;12.50;99.90;;;;;;4977208;28;19930;-75
2022/10/20 09:22:24;;;;;;;;;;;12.50;99.90;;;;;;5002162;28;19930;-76
2022/10/20 09:24:57;;;;;;;;;;;12.60;99.90;;;;;;4994139;28;19937;-77
2022/10/20 09:27:33;;;;;;;;;;;12.60;99.90;;;;;;5014085;28;19925;-76
2022/10/20 09:30:21;;;;;;;;;;;12.70;99.90;;;;;;5023274;28;20390;-78
2022/10/20 09:32:48;;;;;;;;;;;12.70;99.90;;;;;;4988714;28;20520;-75
2022/10/20 09:35:17;;;;;;;;;;;12.80;99.90;;;;;;4995387;28;20713;-76
2022/10/20 09:37:49;;;;;;;;;;;12.70;99.90;;;;;;4991388;28;20339;-76
2022/10/20 09:40:21;;;;;;;;;;;12.70;99.90;;;;;;5010340;28;19933;-78
2022/10/20 09:42:58;;;;;;;;;;;12.60;99.90;;;;;;4994707;28;20371;-77
2022/10/20 09:45:31;;;;;;;;;;;12.60;99.90;;;;;;5015824;28;19980;-75
2022/10/20 09:48:23;;;;;;;;;;;12.60;99.90;;;;;;5025021;28;19934;-74
2022/10/20 09:50:55;;;;;;;;;;;12.60;99.90;;;;;;5020406;28;20310;-77
2022/10/20 09:53:31;;;;;;;;;;;12.60;99.90;;;;;;5009641;28;19925;-74
2022/10/20 09:55:58;;;;;;;;;;;12.60;99.90;;;;;;4991199;28;19932;-74
2022/10/20 09:58:31;;;;;;;;;;;12.60;99.90;;;;;;4991494;28;20388;-74
2022/10/20 10:01:04;;;;;;;;;;;12.70;99.90;;;;;;5005501;28;19933;-75
2022/10/20 10:03:39;;;;;;;;;;;12.80;99.90;;;;;;5002951;28;20991;-76
2022/10/20 10:06:41;;;;;;;;;;;12.80;99.90;;;;;;4991327;28;20412;-73
2022/10/20 10:09:33;;;;;;;;;;;12.90;99.90;;;;;;4894554;29;19927;-72
2022/10/20 10:12:02;;;;;;;;;;;13.00;99.90;;;;;;4989535;28;19925;-75
2022/10/20 10:14:35;;;;;;;;;;;13.10;99.90;;;;;;5012085;28;19933;-74
2022/10/20 10:17:01;;;;;;;;;;;13.00;99.90;;;;;;5005177;28;19926;-75
2022/10/20 10:19:29;;;;;;;;;;;13.00;99.90;;;;;;5002386;28;20611;-75
2022/10/20 10:21:57;;;;;;;;;;;13.10;99.90;;;;;;4994399;28;19973;-76
2022/10/20 10:24:32;;;;;;;;;;;13.10;99.90;;;;;;5025010;28;20423;-75
2022/10/20 10:26:59;;;;;;;;;;;13.00;99.90;;;;;;5024843;28;20612;-75
2022/10/20 10:29:35;;;;;;;;;;;13.00;99.90;;;;;;5010351;28;19948;-74
2022/10/20 10:32:14;;;;;;;;;;;12.90;99.90;;;;;;4995649;28;19925;-75
2022/10/20 10:34:57;;;;;;;;;;;12.90;99.90;;;;;;5010330;28;19936;-74
2022/10/20 10:37:29;;;;;;;;;;;12.90;99.90;;;;;;4992881;28;19929;-76
2022/10/20 10:39:56;;;;;;;;;;;13.00;99.90;;;;;;5005756;28;19987;-75
2022/10/20 10:42:27;;;;;;;;;;;13.00;99.90;;;;;;4997450;28;19929;-75
2022/10/20 10:45:14;;;;;;;;;;;13.00;99.90;;;;;;5027092;28;20351;-76
2022/10/20 10:47:59;;;;;;;;;;;13.10;99.90;;;;;;4995486;28;19925;-74
2022/10/20 10:50:45;;;;;;;;;;;13.10;99.90;;;;;;5026760;28;19934;-75
2022/10/20 10:53:14;;;;;;;;;;;13.20;99.90;;;;;;4994855;28;20388;-75
2022/10/20 10:55:50;;;;;;;;;;;13.20;99.90;;;;;;5009550;28;19988;-74
2022/10/20 10:58:31;;;;;;;;;;;13.20;99.90;;;;;;4993248;28;19926;-77
2022/10/20 11:00:58;;;;;;;;;;;13.30;99.90;;;;;;5009741;28;19947;-77
2022/10/20 11:03:44;;;;;;;;;;;13.30;99.90;;;;;;4994511;28;19956;-76
2022/10/20 11:06:34;;;;;;;;;;;13.30;99.90;;;;;;4980350;28;19929;-76
2022/10/20 11:09:09;;;;;;;;;;;13.30;99.90;;;;;;4983788;28;20057;-75
2022/10/20 11:11:47;;;;;;;;;;;13.20;99.90;;;;;;4993966;28;19925;-76
2022/10/20 11:14:18;;;;;;;;;;;13.20;99.90;;;;;;5008849;28;19933;-73
2022/10/20 11:17:25;;;;;;;;;;;13.20;99.90;;;;;;5005611;28;19929;-74
2022/10/20 11:20:16;;;;;;;;;;;13.30;99.90;;;;;;4984277;28;19925;-74
2022/10/20 11:22:56;;;;;;;;;;;13.30;99.90;;;;;;4992172;28;19925;-75
2022/10/20 11:25:23;;;;;;;;;;;13.40;99.90;;;;;;5005503;28;20333;-73
2022/10/20 11:27:56;;;;;;;;;;;13.40;99.90;;;;;;5007274;28;19945;-75
2022/10/20 11:30:29;;;;;;;;;;;13.50;99.90;;;;;;4990934;28;19929;-73
2022/10/20 11:33:07;;;;;;;;;;;13.50;99.90;;;;;;5027132;28;20481;-74
2022/10/20 11:35:43;;;;;;;;;;;13.50;99.90;;;;;;4992763;28;19925;-76
2022/10/20 11:38:17;;;;;;;;;;;13.50;99.90;;;;;;5003457;28;19925;-73
2022/10/20 11:40:53;;;;;;;;;;;13.60;99.90;;;;;;5007613;28;19988;-74
2022/10/20 11:43:28;;;;;;;;;;;13.60;99.90;;;;;;5000904;28;20355;-75
2022/10/20 11:46:06;;;;;;;;;;;13.70;99.90;;;;;;5010331;28;19956;-75
2022/10/20 11:48:47;;;;;;;;;;;13.70;99.90;;;;;;4992327;28;19980;-77
2022/10/20 11:51:36;;;;;;;;;;;13.70;99.90;;;;;;5010945;28;19929;-75
2022/10/20 11:54:27;;;;;;;;;;;13.80;99.90;;;;;;5008062;28;20444;-73
2022/10/20 11:57:04;;;;;;;;;;;13.80;99.90;;;;;;4999430;28;19925;-74
2022/10/20 11:59:50;;;;;;;;;;;13.90;99.90;;;;;;4994138;28;19925;-75
2022/10/20 12:02:41;;;;;;;;;;;14.00;99.90;;;;;;4999066;28;20435;-74
2022/10/20 12:05:31;;;;;;;;;;;14.00;99.90;;;;;;4993742;28;19925;-74
2022/10/20 12:08:07;;;;;;;;;;;14.00;99.90;;;;;;5003853;28;19933;-76
2022/10/20 12:10:49;;;;;;;;;;;14.00;99.90;;;;;;4993529;28;19976;-76
2022/10/20 12:13:25;;;;;;;;;;;14.00;99.90;;;;;;4981083;28;20547;-76
2022/10/20 12:15:56;;;;;;;;;;;14.00;99.90;;;;;;4991862;28;20579;-73
2022/10/20 12:18:29;;;;;;;;;;;14.00;99.90;;;;;;4977717;28;20297;-76
2022/10/20 12:21:02;;;;;;;;;;;14.00;99.90;;;;;;4992157;28;19929;-75
2022/10/20 12:23:43;;;;;;;;;;;14.00;99.90;;;;;;5017192;28;19978;-74
2022/10/20 12:26:33;;;;;;;;;;;13.90;99.90;;;;;;4992089;28;19968;-76
2022/10/20 12:29:24;;;;;;;;;;;13.90;99.90;;;;;;5011405;28;19926;-76
2022/10/20 12:32:14;;;;;;;;;;;13.80;99.90;;;;;;4993598;28;20368;-74
2022/10/20 12:34:41;;;;;;;;;;;13.80;99.90;;;;;;5010586;28;19980;-77
2022/10/20 12:37:17;;;;;;;;;;;13.80;99.90;;;;;;4991904;28;19925;-77
2022/10/20 12:39:44;;;;;;;;;;;13.70;99.90;;;;;;5010405;28;20415;-74
2022/10/20 12:42:22;;;;;;;;;;;13.70;99.90;;;;;;4977220;28;20015;-75
2022/10/20 12:44:55;;;;;;;;;;;13.60;99.90;;;;;;4992962;28;20292;-76
2022/10/20 12:47:27;;;;;;;;;;;13.60;99.90;;;;;;4989279;28;19926;-77
2022/10/20 12:50:02;;;;;;;;;;;13.60;99.90;;;;;;5009210;28;19929;-75
2022/10/20 12:52:38;;;;;;;;;;;13.60;99.90;;;;;;4993139;28;19926;-74
2022/10/20 12:55:21;;;;;;;;;;;13.50;99.90;;;;;;4990332;28;19988;-74
2022/10/20 12:58:09;;;;;;;;;;;13.40;99.90;;;;;;4976111;28;19925;-72
2022/10/20 13:00:48;;;;;;;;;;;13.50;99.90;;;;;;5006170;28;19925;-74
2022/10/20 13:03:33;;;;;;;;;;;13.50;99.90;;;;;;5011620;28;19926;-76
2022/10/20 13:06:00;;;;;;;;;;;13.50;99.90;;;;;;5014311;28;19933;-74
2022/10/20 13:08:34;;;;;;;;;;;13.50;99.90;;;;;;4959972;28;1420436;-74
2022/10/20 13:11:19;;;;;;;;;;;13.50;99.90;;;;;;5021592;28;19976;-74
2022/10/20 13:13:55;;;;;;;;;;;13.50;99.90;;;;;;5007734;28;20356;-74
2022/10/20 13:16:28;;;;;;;;;;;13.50;99.90;;;;;;4992627;28;19930;-74
2022/10/20 13:19:00;;;;;;;;;;;13.50;99.90;;;;;;5022503;28;19925;-75
2022/10/20 13:21:31;;;;;;;;;;;13.50;99.90;;;;;;5002302;28;19980;-76
2022/10/20 13:24:01;;;;;;;;;;;13.50;99.90;;;;;;4993567;28;20426;-77
2022/10/20 13:26:42;;;;;;;;;;;13.50;99.90;;;;;;5009119;28;19929;-74
2022/10/20 13:29:19;;;;;;;;;;;13.60;99.90;;;;;;4988972;28;20336;-75
2022/10/20 13:31:58;;;;;;;;;;;13.60;99.90;;;;;;5008734;28;19925;-74
2022/10/20 13:34:35;;;;;;;;;;;13.60;99.90;;;;;;5016016;28;19929;-73
2022/10/20 13:37:02;;;;;;;;;;;13.70;99.90;;;;;;5020092;28;19961;-74
2022/10/20 13:39:36;;;;;;;;;;;13.70;99.90;;;;;;5021772;28;20343;-76
2022/10/20 13:42:37;;;;;;;;;;;13.80;99.90;;;;;;5025400;28;19925;-75
2022/10/20 13:45:07;;;;;;;;;;;13.80;99.90;;;;;;4980686;28;19972;-75
2022/10/20 13:47:34;;;;;;;;;;;13.90;99.90;;;;;;4995933;28;19932;-75
2022/10/20 13:50:09;;;;;;;;;;;13.90;99.90;;;;;;4997789;28;19926;-73
2022/10/20 13:52:42;;;;;;;;;;;13.80;99.90;;;;;;5007468;28;20376;-78
2022/10/20 13:55:15;;;;;;;;;;;13.90;99.90;;;;;;4997454;28;19980;-78
2022/10/20 13:57:49;;;;;;;;;;;13.90;99.90;;;;;;4996597;28;20392;-77
2022/10/20 14:00:18;;;;;;;;;;;13.90;99.90;;;;;;4995373;28;19926;-74
2022/10/20 14:02:52;;;;;;;;;;;13.90;99.90;;;;;;5008381;28;19929;-75
2022/10/20 14:05:20;;;;;;;;;;;13.90;99.90;;;;;;5013988;28;20295;-74
2022/10/20 14:07:52;;;;;;;;;;;13.90;99.90;;;;;;4995755;28;19984;-76
2022/10/20 14:10:20;;;;;;;;;;;13.80;99.90;;;;;;5013144;28;20515;-74
2022/10/20 14:12:53;;;;;;;;;;;13.80;99.90;;;;;;5010983;28;19933;-75
2022/10/20 14:15:35;;;;;;;;;;;13.80;99.90;;;;;;5021083;28;19925;-76
2022/10/20 14:18:03;;;;;;;;;;;13.80;99.90;;;;;;5016534;28;19940;-76
2022/10/20 14:20:40;;;;;;;;;;;13.70;99.90;;;;;;4994548;28;20582;-76
2022/10/20 14:23:12;;;;;;;;;;;13.70;99.90;;;;;;4991401;28;19925;-75
2022/10/20 14:25:48;;;;;;;;;;;13.70;99.90;;;;;;5012359;28;19961;-76
2022/10/20 14:28:20;;;;;;;;;;;13.70;99.90;;;;;;5010074;28;19937;-75
2022/10/20 14:30:49;;;;;;;;;;;13.60;99.90;;;;;;5008920;28;19977;-74
2022/10/20 14:33:20;;;;;;;;;;;13.60;99.90;;;;;;4995653;28;19956;-74
2022/10/20 14:35:52;;;;;;;;;;;13.60;99.90;;;;;;5010962;28;19991;-73
2022/10/20 14:38:23;;;;;;;;;;;13.60;99.90;;;;;;4978226;28;20323;-75
2022/10/20 14:40:56;;;;;;;;;;;13.60;99.90;;;;;;5010374;28;20431;-73
2022/10/20 14:43:22;;;;;;;;;;;13.60;99.90;;;;;;4992336;28;19968;-76
2022/10/20 14:45:55;;;;;;;;;;;13.70;99.90;;;;;;5011889;28;19932;-76
2022/10/20 14:48:31;;;;;;;;;;;13.70;99.90;;;;;;5001254;28;19926;-77
2022/10/20 14:51:25;;;;;;;;;;;13.70;99.90;;;;;;5024009;28;19925;-74